createdAt,value
2022-10-22T00:01:16.460Z,15.15
2022-10-22T00:03:42.937Z,15.15
2022-10-22T00:06:09.401Z,15.14
2022-10-22T00:08:35.914Z,15.13
2022-10-22T00:11:14.401Z,15.18
2022-10-22T00:13:41.019Z,15.19
2022-10-22T00:16:07.974Z,15.13
2022-10-22T00:18:35.137Z,15.15
2022-10-22T00:21:02.192Z,15.14
2022-10-22T00:23:28.861Z,15.13
2022-10-22T00:25:55.410Z,15.11
2022-10-22T00:28:22.151Z,15.04
2022-10-22T00:30:48.612Z,15.01
2022-10-22T00:33:15.028Z,15.04
2022-10-22T00:35:41.492Z,15.04
2022-10-22T00:38:07.988Z,14.92
2022-10-22T00:40:34.995Z,14.98
2022-10-22T00:43:01.521Z,15.01
2022-10-22T00:45:28.497Z,14.99
2022-10-22T00:48:09.042Z,14.93
2022-10-22T00:50:43.645Z,14.90
2022-10-22T00:53:17.233Z,14.85
2022-10-22T00:55:46.134Z,14.81
2022-10-22T00:58:13.959Z,14.94
2022-10-22T01:00:40.713Z,14.89
2022-10-22T01:03:07.461Z,14.89
2022-10-22T01:05:45.189Z,14.88
2022-10-22T01:08:23.732Z,14.66
2022-10-22T01:11:19.387Z,14.85
2022-10-22T01:13:51.892Z,14.84
2022-10-22T01:16:41.338Z,14.61
2022-10-22T01:19:25.505Z,14.79
2022-10-22T01:21:59.583Z,14.75
2022-10-22T01:24:38.244Z,14.69
2022-10-22T01:27:11.847Z,14.58
2022-10-22T01:29:59.963Z,14.50
2022-10-22T01:32:29.339Z,14.62
2022-10-22T01:35:01.764Z,14.70
2022-10-22T01:37:37.022Z,14.74
2022-10-22T01:40:06.850Z,14.68
2022-10-22T01:42:33.306Z,14.63
2022-10-22T01:44:59.758Z,14.67
2022-10-22T01:47:54.150Z,14.72
2022-10-22T01:50:44.467Z,14.71
2022-10-22T01:53:21.452Z,14.70
2022-10-22T01:55:47.855Z,14.71
2022-10-22T01:58:33.982Z,14.70
2022-10-22T02:01:08.701Z,14.70
2022-10-22T02:03:49.969Z,14.71
2022-10-22T02:06:20.626Z,14.55
2022-10-22T02:08:49.689Z,14.61
2022-10-22T02:11:16.834Z,14.73
2022-10-22T02:13:48.158Z,14.73
2022-10-22T02:16:36.265Z,14.78
2022-10-22T02:19:11.240Z,14.60
2022-10-22T02:21:37.909Z,14.69
2022-10-22T02:24:04.785Z,14.79
2022-10-22T02:26:50.203Z,14.71
2022-10-22T02:29:26.397Z,14.77
2022-10-22T02:31:56.660Z,14.75
2022-10-22T02:34:27.762Z,14.74
2022-10-22T02:36:54.735Z,14.58
2022-10-22T02:39:22.974Z,14.72
2022-10-22T02:41:49.478Z,14.75
2022-10-22T02:44:16.016Z,14.77
2022-10-22T02:46:43.305Z,14.73
2022-10-22T02:49:09.740Z,14.72
2022-10-22T02:51:36.184Z,14.75
2022-10-22T02:54:02.626Z,14.64
2022-10-22T02:56:29.106Z,14.66
2022-10-22T02:58:55.573Z,14.73
2022-10-22T03:01:22.122Z,14.74
2022-10-22T03:03:48.686Z,14.72
2022-10-22T03:06:15.275Z,14.67
2022-10-22T03:08:42.107Z,14.69
2022-10-22T03:11:08.768Z,14.70
2022-10-22T03:13:35.410Z,14.67
2022-10-22T03:16:02.228Z,14.70
2022-10-22T03:18:28.632Z,14.66
2022-10-22T03:21:06.058Z,14.48
2022-10-22T03:23:33.025Z,14.69
2022-10-22T03:28:26.404Z,14.53
2022-10-22T03:30:52.811Z,14.66
2022-10-22T03:33:19.221Z,14.66
2022-10-22T03:35:47.771Z,14.55
2022-10-22T03:38:14.826Z,14.64
2022-10-22T03:40:43.909Z,14.31
2022-10-22T03:43:10.417Z,14.54
2022-10-22T03:48:08.226Z,14.64
2022-10-22T03:50:34.684Z,14.65
2022-10-22T03:53:01.165Z,14.62
2022-10-22T03:55:27.549Z,14.65
2022-10-22T03:57:54.135Z,14.64
2022-10-22T04:00:20.642Z,14.70
2022-10-22T04:02:47.118Z,14.70
2022-10-22T04:07:41.182Z,14.74
2022-10-22T04:10:08.303Z,14.72
2022-10-22T04:12:34.741Z,14.73
2022-10-22T04:15:01.164Z,14.73
2022-10-22T04:17:36.413Z,14.79
2022-10-22T04:20:04.505Z,14.74
2022-10-22T04:22:33.919Z,14.67
2022-10-22T04:25:00.499Z,14.82
2022-10-22T04:27:33.044Z,14.78
2022-10-22T04:29:59.465Z,14.78
2022-10-22T04:32:27.167Z,14.86
2022-10-22T04:34:53.668Z,14.87
2022-10-22T04:37:20.275Z,14.87
2022-10-22T04:39:46.739Z,14.85
2022-10-22T04:42:14.158Z,14.78
2022-10-22T04:44:40.582Z,14.85
2022-10-22T04:47:07.023Z,14.83
2022-10-22T04:49:33.484Z,14.80
2022-10-22T04:51:59.890Z,14.83
2022-10-22T04:54:29.035Z,14.88
2022-10-22T04:56:58.698Z,14.89
2022-10-22T04:59:25.249Z,14.89
2022-10-22T05:01:51.670Z,14.86
2022-10-22T05:04:18.166Z,14.88
2022-10-22T05:06:44.863Z,14.78
2022-10-22T05:09:14.165Z,14.66
2022-10-22T05:11:42.603Z,14.79
2022-10-22T05:14:11.068Z,14.79
2022-10-22T05:16:38.049Z,14.78
2022-10-22T05:19:05.708Z,14.78
2022-10-22T05:21:32.606Z,14.76
2022-10-22T05:23:59.096Z,14.71
2022-10-22T05:26:26.525Z,14.69
2022-10-22T05:28:53.136Z,14.56
2022-10-22T05:31:20.020Z,14.63
2022-10-22T05:33:46.998Z,14.61
2022-10-22T05:36:16.125Z,14.54
2022-10-22T05:38:42.569Z,14.56
2022-10-22T05:41:12.234Z,14.39
2022-10-22T05:43:38.998Z,14.49
2022-10-22T05:46:10.799Z,14.49
2022-10-22T05:48:37.618Z,14.48
2022-10-22T05:51:06.235Z,14.43
2022-10-22T05:53:33.687Z,14.44
2022-10-22T05:56:05.392Z,14.40
2022-10-22T05:58:31.976Z,14.39
2022-10-22T06:01:28.082Z,14.39
2022-10-22T06:03:56.598Z,14.16
2022-10-22T06:06:27.812Z,14.34
2022-10-22T06:08:55.873Z,14.31
2022-10-22T06:11:24.015Z,14.27
2022-10-22T06:13:51.431Z,14.19
2022-10-22T06:16:17.968Z,14.11
2022-10-22T06:18:44.432Z,14.12
2022-10-22T06:21:13.188Z,14.06
2022-10-22T06:23:40.285Z,14.01
2022-10-22T06:26:08.076Z,13.95
2022-10-22T06:28:34.782Z,13.84
2022-10-22T06:31:02.318Z,13.83
2022-10-22T06:33:31.189Z,13.79
2022-10-22T06:36:07.594Z,13.63
2022-10-22T06:38:34.508Z,13.65
2022-10-22T06:41:06.251Z,13.37
2022-10-22T06:43:32.822Z,13.52
2022-10-22T06:46:04.221Z,13.54
2022-10-22T06:48:30.693Z,13.51
2022-10-22T06:51:01.942Z,13.48
2022-10-22T06:53:28.785Z,13.44
2022-10-22T06:55:55.238Z,13.31
2022-10-22T06:58:21.677Z,13.16
2022-10-22T07:00:48.139Z,13.36
2022-10-22T07:03:15.587Z,13.34
2022-10-22T07:05:42.053Z,13.27
2022-10-22T07:08:08.566Z,13.26
2022-10-22T07:10:34.999Z,13.32
2022-10-22T07:13:01.479Z,13.31
2022-10-22T07:15:27.901Z,13.32
2022-10-22T07:17:54.400Z,13.19
2022-10-22T07:20:20.812Z,13.26
2022-10-22T07:22:47.247Z,13.35
2022-10-22T07:25:13.680Z,13.35
2022-10-22T07:27:40.529Z,13.30
2022-10-22T07:30:08.089Z,13.32
2022-10-22T07:32:34.554Z,13.38
2022-10-22T07:35:00.957Z,13.39
2022-10-22T07:37:27.432Z,13.41
2022-10-22T07:39:53.853Z,13.37
2022-10-22T07:42:20.334Z,13.41
2022-10-22T07:44:46.777Z,13.20
2022-10-22T07:47:13.259Z,13.36
2022-10-22T07:49:39.693Z,13.41
2022-10-22T07:52:07.359Z,13.45
2022-10-22T07:54:33.811Z,13.50
2022-10-22T07:57:00.283Z,13.53
2022-10-22T07:59:26.747Z,13.43
2022-10-22T08:01:53.272Z,13.52
2022-10-22T08:04:20.170Z,13.52
2022-10-22T08:06:47.344Z,13.47
2022-10-22T08:09:14.477Z,13.54
2022-10-22T08:11:41.007Z,13.55
2022-10-22T08:14:07.503Z,13.57
2022-10-22T08:16:33.933Z,13.58
2022-10-22T08:19:00.411Z,13.55
2022-10-22T08:21:27.007Z,13.52
2022-10-22T08:23:53.516Z,13.53
2022-10-22T08:26:20.058Z,13.62
2022-10-22T08:28:46.570Z,13.56
2022-10-22T08:31:13.405Z,13.62
2022-10-22T08:33:39.883Z,13.71
2022-10-22T08:36:06.931Z,13.77
2022-10-22T08:38:33.676Z,13.77
2022-10-22T08:41:17.181Z,13.94
2022-10-22T08:44:08.209Z,14.15
2022-10-22T08:47:00.834Z,14.26
2022-10-22T08:49:37.148Z,14.31
2022-10-22T08:52:13.111Z,14.42
2022-10-22T08:54:53.179Z,14.82
2022-10-22T08:57:43.119Z,15.07
2022-10-22T09:00:15.561Z,15.19
2022-10-22T09:03:07.763Z,15.65
2022-10-22T09:08:23.680Z,15.92
2022-10-22T09:11:01.883Z,16.13
2022-10-22T09:13:29.658Z,16.36
2022-10-22T09:16:01.382Z,16.56
2022-10-22T09:18:43.037Z,16.77
2022-10-22T09:21:23.891Z,16.89
2022-10-22T09:24:00.847Z,17.12
2022-10-22T09:26:27.441Z,17.32
2022-10-22T09:28:54.745Z,17.56
2022-10-22T09:31:21.230Z,17.68
2022-10-22T09:33:50.680Z,17.61
2022-10-22T09:36:21.333Z,17.59
2022-10-22T09:38:51.801Z,17.63
2022-10-22T09:41:25.731Z,17.81
2022-10-22T09:43:52.366Z,17.80
2022-10-22T09:46:22.540Z,17.91
2022-10-22T09:49:06.402Z,18.00
2022-10-22T09:51:46.170Z,18.13
2022-10-22T09:54:20.412Z,18.31
2022-10-22T09:56:51.715Z,18.29
2022-10-22T09:59:19.349Z,18.25
2022-10-22T10:01:45.867Z,18.20
2022-10-22T10:04:15.538Z,18.13
2022-10-22T10:06:44.470Z,18.00
2022-10-22T10:09:20.560Z,17.70
2022-10-22T10:12:07.991Z,17.80
2022-10-22T10:14:46.450Z,17.69
2022-10-22T10:17:27.010Z,17.63
2022-10-22T10:19:53.420Z,17.57
2022-10-22T10:22:35.474Z,17.52
2022-10-22T10:25:16.945Z,17.44
2022-10-22T10:27:46.752Z,17.36
2022-10-22T10:30:21.963Z,17.09
2022-10-22T10:33:04.876Z,17.21
2022-10-22T10:35:58.490Z,17.18
2022-10-22T10:38:37.451Z,17.23
2022-10-22T10:41:17.912Z,17.21
2022-10-22T10:44:29.684Z,16.94
2022-10-22T10:47:14.504Z,17.08
2022-10-22T10:49:43.086Z,16.94
2022-10-22T10:52:35.924Z,16.97
2022-10-22T10:55:34.370Z,16.91
2022-10-22T10:58:18.551Z,16.69
2022-10-22T11:00:55.543Z,16.60
2022-10-22T11:03:51.205Z,16.69
2022-10-22T11:06:23.153Z,16.39
2022-10-22T11:08:58.369Z,16.67
2022-10-22T11:11:52.973Z,16.68
2022-10-22T11:14:30.018Z,16.50
2022-10-22T11:17:04.367Z,16.43
2022-10-22T11:20:01.987Z,16.57
2022-10-22T11:22:34.088Z,16.37
2022-10-22T11:25:12.613Z,16.53
2022-10-22T11:28:07.811Z,16.53
2022-10-22T11:30:38.047Z,16.42
2022-10-22T11:33:10.001Z,16.52
2022-10-22T11:35:42.209Z,16.47
2022-10-22T11:38:14.691Z,16.30
2022-10-22T11:41:02.433Z,16.43
2022-10-22T11:43:58.632Z,16.48
2022-10-22T11:46:29.965Z,16.44
2022-10-22T11:49:16.710Z,16.50
2022-10-22T11:51:44.846Z,16.32
2022-10-22T11:54:35.407Z,16.52
2022-10-22T11:57:14.286Z,16.55
2022-10-22T11:59:46.593Z,16.55
2022-10-22T12:02:45.308Z,16.55
2022-10-22T12:05:19.319Z,16.45
2022-10-22T12:07:57.258Z,16.55
2022-10-22T12:10:33.896Z,16.60
2022-10-22T12:13:21.901Z,16.54
2022-10-22T12:15:51.322Z,16.59
2022-10-22T12:18:17.809Z,16.65
2022-10-22T12:20:49.369Z,16.68
2022-10-22T12:23:15.972Z,16.69
2022-10-22T12:25:42.386Z,16.61
2022-10-22T12:28:12.480Z,16.69
2022-10-22T12:30:39.294Z,16.83
2022-10-22T12:33:07.775Z,16.88
2022-10-22T12:35:42.101Z,16.70
2022-10-22T12:38:17.218Z,16.91
2022-10-22T12:40:47.503Z,16.92
2022-10-22T12:43:24.404Z,16.84
2022-10-22T12:45:52.531Z,16.82
2022-10-22T12:48:23.552Z,16.86
2022-10-22T12:50:55.055Z,16.91
2022-10-22T12:53:27.000Z,17.10
2022-10-22T12:55:55.607Z,17.12
2022-10-22T12:58:27.561Z,16.93
2022-10-22T13:00:56.067Z,17.08
2022-10-22T13:03:43.739Z,17.15
2022-10-22T13:06:19.355Z,17.17
2022-10-22T13:09:11.900Z,17.18
2022-10-22T13:11:41.584Z,17.22
2022-10-22T13:14:40.611Z,17.13
2022-10-22T13:17:20.511Z,17.32
2022-10-22T13:19:54.339Z,17.12
2022-10-22T13:22:38.996Z,17.32
2022-10-22T13:25:14.647Z,17.38
2022-10-22T13:27:45.702Z,17.38
2022-10-22T13:30:23.421Z,17.21
2022-10-22T13:32:53.160Z,17.43
2022-10-22T13:35:24.363Z,17.45
2022-10-22T13:37:50.830Z,17.47
2022-10-22T13:40:17.956Z,17.43
2022-10-22T13:42:44.661Z,17.45
2022-10-22T13:45:12.598Z,17.45
2022-10-22T13:47:39.544Z,17.48
2022-10-22T13:50:18.561Z,17.48
2022-10-22T13:52:55.321Z,17.44
2022-10-22T13:55:28.595Z,17.39
2022-10-22T13:58:11.654Z,17.58
2022-10-22T14:00:40.861Z,17.65
2022-10-22T14:03:11.049Z,17.67
2022-10-22T14:05:37.786Z,17.67
2022-10-22T14:08:09.468Z,17.72
2022-10-22T14:10:35.899Z,17.76
2022-10-22T14:13:02.351Z,17.80
2022-10-22T14:15:29.384Z,17.76
2022-10-22T14:17:58.250Z,17.65
2022-10-22T14:20:28.985Z,17.66
2022-10-22T14:22:56.443Z,17.85
2022-10-22T14:25:25.540Z,17.86
2022-10-22T14:27:52.228Z,17.92
2022-10-22T14:30:21.465Z,17.81
2022-10-22T14:32:48.200Z,18.03
2022-10-22T14:35:22.073Z,18.12
2022-10-22T14:37:48.554Z,18.19
2022-10-22T14:40:18.818Z,18.20
2022-10-22T14:42:47.605Z,18.29
2022-10-22T14:45:32.188Z,18.37
2022-10-22T14:47:58.636Z,18.48
2022-10-22T14:50:25.206Z,18.57
2022-10-22T14:52:51.988Z,18.61
2022-10-22T14:55:19.259Z,18.67
2022-10-22T14:57:46.128Z,18.67
2022-10-22T15:00:15.992Z,18.53
2022-10-22T15:02:43.144Z,18.67
2022-10-22T15:05:10.628Z,18.66
2022-10-22T15:07:38.274Z,18.57
2022-10-22T15:10:06.308Z,18.57
2022-10-22T15:12:33.122Z,18.52
2022-10-22T15:14:59.559Z,18.52
2022-10-22T15:17:26.115Z,18.48
2022-10-22T15:19:52.551Z,18.40
2022-10-22T15:22:19.526Z,18.46
2022-10-22T15:24:46.048Z,18.43
2022-10-22T15:27:12.573Z,18.41
2022-10-22T15:29:39.747Z,18.38
2022-10-22T15:32:06.309Z,18.38
2022-10-22T15:34:34.946Z,18.39
2022-10-22T15:37:04.528Z,18.37
2022-10-22T15:39:32.053Z,18.37
2022-10-22T15:41:59.211Z,18.34
2022-10-22T15:44:30.850Z,18.30
2022-10-22T15:46:58.158Z,18.31
2022-10-22T15:49:26.931Z,18.24
2022-10-22T15:51:53.537Z,18.22
2022-10-22T15:54:22.579Z,18.01
2022-10-22T15:56:49.346Z,18.17
2022-10-22T15:59:17.249Z,18.11
2022-10-22T16:01:44.406Z,18.11
2022-10-22T16:04:11.076Z,18.08
2022-10-22T16:06:44.562Z,18.05
2022-10-22T16:09:14.496Z,18.01
2022-10-22T16:11:41.938Z,18.00
2022-10-22T16:14:11.004Z,17.95
2022-10-22T16:16:37.516Z,17.90
2022-10-22T16:19:03.947Z,17.92
2022-10-22T16:21:30.415Z,17.85
2022-10-22T16:23:56.975Z,17.68
2022-10-22T16:26:23.497Z,17.80
2022-10-22T16:28:50.172Z,17.72
2022-10-22T16:31:17.817Z,17.54
2022-10-22T16:33:46.505Z,17.65
2022-10-22T16:36:18.735Z,17.54
2022-10-22T16:38:46.530Z,17.52
2022-10-22T16:41:15.918Z,17.30
2022-10-22T16:43:43.811Z,17.44
2022-10-22T16:46:11.349Z,17.43
2022-10-22T16:48:38.001Z,17.32
2022-10-22T16:51:07.346Z,17.33
2022-10-22T16:56:01.544Z,17.21
2022-10-22T16:58:27.999Z,17.10
2022-10-22T17:00:54.566Z,17.12
2022-10-22T17:03:23.478Z,17.01
2022-10-22T17:05:52.490Z,17.02
2022-10-22T17:08:18.948Z,17.01
2022-10-22T17:10:45.416Z,16.98
2022-10-22T17:13:11.845Z,16.92
2022-10-22T17:15:38.277Z,16.89
2022-10-22T17:18:24.723Z,16.86
2022-10-22T17:20:51.141Z,16.85
2022-10-22T17:23:17.596Z,16.81
2022-10-22T17:25:44.539Z,16.76
2022-10-22T17:28:11.868Z,16.72
2022-10-22T17:30:38.586Z,16.72
2022-10-22T17:33:06.218Z,16.69
2022-10-22T17:35:33.781Z,16.72
2022-10-22T17:38:00.209Z,16.65
2022-10-22T17:40:26.720Z,16.68
2022-10-22T17:42:53.478Z,16.68
2022-10-22T17:45:20.038Z,16.58
2022-10-22T17:47:46.456Z,16.65
2022-10-22T17:50:12.968Z,16.50
2022-10-22T17:52:39.645Z,16.56
2022-10-22T17:55:06.659Z,16.57
2022-10-22T17:57:33.061Z,16.53
2022-10-22T17:59:59.527Z,16.48
2022-10-22T18:02:26.025Z,16.50
2022-10-22T18:04:52.685Z,16.42
2022-10-22T18:07:19.116Z,16.42
2022-10-22T18:09:45.605Z,16.35
2022-10-22T18:12:12.307Z,16.37
2022-10-22T18:14:38.724Z,16.34
2022-10-22T18:17:05.214Z,16.31
2022-10-22T18:19:31.796Z,16.29
2022-10-22T18:21:58.697Z,16.25
2022-10-22T18:24:25.144Z,16.24
2022-10-22T18:26:51.610Z,16.20
2022-10-22T18:29:18.972Z,16.20
2022-10-22T18:31:45.439Z,16.19
2022-10-22T18:34:12.171Z,16.15
2022-10-22T18:36:40.476Z,15.93
2022-10-22T18:39:07.383Z,16.11
2022-10-22T18:41:34.160Z,16.07
2022-10-22T18:44:03.893Z,16.03
2022-10-22T18:46:31.795Z,16.03
2022-10-22T18:48:59.014Z,16.02
2022-10-22T18:51:27.464Z,15.97
2022-10-22T18:54:05.319Z,15.98
2022-10-22T18:56:39.348Z,15.95
2022-10-22T18:59:05.788Z,15.95
2022-10-22T19:01:32.269Z,15.94
2022-10-22T19:03:59.094Z,15.92
2022-10-22T19:06:33.310Z,15.73
2022-10-22T19:09:03.973Z,15.87
2022-10-22T19:11:30.488Z,15.89
2022-10-22T19:13:57.742Z,15.86
2022-10-22T19:16:24.174Z,15.83
2022-10-22T19:18:52.306Z,15.80
2022-10-22T19:21:19.081Z,15.79
2022-10-22T19:26:18.668Z,15.56
2022-10-22T19:28:45.470Z,15.75
2022-10-22T19:31:16.445Z,15.60
2022-10-22T19:33:42.886Z,15.61
2022-10-22T19:36:12.682Z,15.47
2022-10-22T19:38:40.838Z,15.56
2022-10-22T19:41:08.619Z,15.61
2022-10-22T19:43:35.075Z,15.60
2022-10-22T19:46:04.372Z,15.64
2022-10-22T19:48:31.387Z,15.64
2022-10-22T19:51:02.608Z,15.62
2022-10-22T19:53:30.169Z,15.56
2022-10-22T19:55:58.762Z,15.56
2022-10-22T19:58:25.716Z,15.57
2022-10-22T20:00:53.036Z,15.52
2022-10-22T20:03:19.919Z,15.55
2022-10-22T20:05:47.433Z,15.54
2022-10-22T20:08:14.157Z,15.53
2022-10-22T20:10:40.613Z,15.51
2022-10-22T20:13:07.052Z,15.50
2022-10-22T20:15:34.218Z,15.48
2022-10-22T20:18:00.888Z,15.52
2022-10-22T20:20:27.318Z,15.38
2022-10-22T20:22:54.077Z,15.52
2022-10-22T20:25:20.503Z,15.51
2022-10-22T20:27:47.123Z,15.55
2022-10-22T20:30:14.303Z,15.53
2022-10-22T20:32:41.148Z,15.48
2022-10-22T20:35:08.096Z,15.50
2022-10-22T20:37:34.760Z,15.52
2022-10-22T20:40:01.199Z,15.51
2022-10-22T20:42:27.673Z,15.54
2022-10-22T20:44:54.079Z,15.54
2022-10-22T20:47:20.541Z,15.40
2022-10-22T20:49:46.935Z,15.55
2022-10-22T20:52:13.368Z,15.55
2022-10-22T20:54:39.944Z,15.51
2022-10-22T20:57:06.425Z,15.55
2022-10-22T20:59:32.930Z,15.49
2022-10-22T21:01:59.475Z,15.50
2022-10-22T21:04:26.161Z,15.57
2022-10-22T21:06:52.992Z,15.58
2022-10-22T21:09:20.130Z,15.60
2022-10-22T21:11:47.434Z,15.57
2022-10-22T21:14:15.507Z,15.61
2022-10-22T21:16:44.039Z,15.64
2022-10-22T21:19:10.762Z,15.64
2022-10-22T21:21:37.617Z,15.66
2022-10-22T21:24:04.101Z,15.63
2022-10-22T21:26:30.547Z,15.63
2022-10-22T21:28:56.948Z,15.63
2022-10-22T21:31:23.505Z,15.25
2022-10-22T21:33:50.538Z,15.67
2022-10-22T21:36:21.630Z,15.67
2022-10-22T21:38:50.555Z,15.68
2022-10-22T21:41:18.413Z,15.68
2022-10-22T21:43:46.072Z,15.69
2022-10-22T21:46:16.498Z,15.70
2022-10-22T21:48:43.246Z,15.70
2022-10-22T21:51:15.916Z,15.71
2022-10-22T21:53:43.339Z,15.66
2022-10-22T21:56:15.049Z,15.67
2022-10-22T21:58:41.699Z,15.72
2022-10-22T22:01:08.395Z,15.75
2022-10-22T22:03:34.829Z,15.74
2022-10-22T22:06:03.870Z,15.74
2022-10-22T22:08:30.955Z,15.76
2022-10-22T22:11:09.452Z,15.58
2022-10-22T22:13:36.395Z,15.74
2022-10-22T22:16:15.127Z,15.55
2022-10-22T22:18:41.803Z,15.58
2022-10-22T22:21:13.812Z,15.54
2022-10-22T22:23:43.528Z,15.61
2022-10-22T22:26:11.149Z,15.75
2022-10-22T22:28:37.894Z,15.72
2022-10-22T22:31:34.514Z,15.76
2022-10-22T22:34:03.930Z,15.76
2022-10-22T22:36:39.795Z,15.76
2022-10-22T22:39:07.946Z,15.79
2022-10-22T22:41:34.892Z,15.79
2022-10-22T22:44:01.872Z,15.79
2022-10-22T22:46:28.596Z,15.74
2022-10-22T22:48:55.336Z,15.76
2022-10-22T22:51:21.816Z,15.75
2022-10-22T22:53:48.229Z,15.69
2022-10-22T22:56:20.727Z,15.60
2022-10-22T22:58:47.374Z,15.73
2022-10-22T23:01:15.868Z,15.74
2022-10-22T23:03:43.414Z,15.73
2022-10-22T23:06:10.526Z,15.75
2022-10-22T23:08:37.380Z,15.75
2022-10-22T23:11:13.970Z,15.73
2022-10-22T23:13:42.027Z,15.75
2022-10-22T23:16:17.451Z,15.70
2022-10-22T23:18:45.872Z,15.77
2022-10-22T23:21:14.062Z,15.77
2022-10-22T23:23:49.053Z,15.74
2022-10-22T23:26:28.012Z,15.70
2022-10-22T23:28:54.811Z,15.72
2022-10-22T23:31:21.530Z,15.74
2022-10-22T23:33:48.406Z,15.71
2022-10-22T23:36:14.905Z,15.71
2022-10-22T23:38:43.092Z,15.68
2022-10-22T23:41:09.925Z,15.52
2022-10-22T23:43:37.620Z,15.65
2022-10-22T23:46:08.567Z,15.61
2022-10-22T23:48:35.787Z,15.63
2022-10-22T23:51:05.821Z,15.60
2022-10-22T23:53:32.348Z,15.58
2022-10-22T23:56:03.920Z,15.39
2022-10-22T23:58:30.346Z,15.50
